Time;durP1;ratioP1;P1;durP2;ratioP2;P2;SDS_P1;SDS_P2;PMS_P1;PMS_P2;Temp;Humidity;BMP_temperature;BMP_pressure;BME280_temperature;BME280_humidity;BME280_pressure;Samples;Min_cycle;Max_cycle;Signal;HPM_P1;HPM_P2
2022/12/05 00:00:00;;;;;;;0.60;0.60;;;;;;;1.06;96.28;96662.59;29371;257;64014;-66
2022/12/05 00:00:32;;;;;;;0.60;0.60;;;;;;;1.03;95.89;96663.09;29373;224;63005;-57
2022/12/05 00:01:39;;;;;;;0.60;0.60;;;;;;;1.05;96.32;96660.97;29373;251;63009;-66
2022/12/05 00:02:11;;;;;;;0.60;0.60;;;;;;;1.09;96.10;96659.47;29373;232;63005;-56
2022/12/05 00:02:43;;;;;;;0.62;0.62;;;;;;;1.06;95.68;96654.59;29373;278;63009;-56
2022/12/05 00:03:14;;;;;;;0.70;0.70;;;;;;;1.02;95.99;96656.13;29373;303;63005;-56
2022/12/05 00:03:49;;;;;;;0.60;0.60;;;;;;;1.01;96.04;96659.84;29373;316;63009;-57
2022/12/05 00:04:20;;;;;;;0.60;0.60;;;;;;;1.01;96.24;96654.50;29373;259;63009;-57
2022/12/05 00:04:52;;;;;;;0.70;0.70;;;;;;;1.02;96.56;96660.66;29373;336;63009;-56
2022/12/05 00:05:23;;;;;;;0.60;0.60;;;;;;;1.05;96.93;96655.63;29371;301;64009;-57
2022/12/05 00:05:54;;;;;;;0.60;0.60;;;;;;;1.07;96.84;96653.53;29373;330;63008;-55
2022/12/05 00:06:28;;;;;;;0.60;0.60;;;;;;;1.03;96.58;96651.59;29373;330;63010;-57
2022/12/05 00:07:01;;;;;;;0.60;0.60;;;;;;;1.01;96.40;96659.84;29373;290;63020;-67
2022/12/05 00:07:32;;;;;;;0.60;0.60;;;;;;;0.97;96.53;96654.19;29373;203;63010;-55
2022/12/05 00:08:03;;;;;;;0.70;0.70;;;;;;;0.96;96.97;96662.44;29373;225;63009;-65
2022/12/05 00:08:35;;;;;;;0.60;0.60;;;;;;;0.98;97.20;96665.69;29373;335;63005;-57
2022/12/05 00:09:09;;;;;;;0.70;0.70;;;;;;;1.05;97.31;96660.97;29373;209;63009;-56
2022/12/05 00:09:41;;;;;;;0.85;0.85;;;;;;;1.12;96.77;96658.97;29373;269;63005;-57
2022/12/05 00:10:16;;;;;;;0.70;0.70;;;;;;;1.19;96.41;96662.31;29373;237;63009;-56
2022/12/05 00:10:47;;;;;;;0.88;0.88;;;;;;;1.20;95.93;96658.59;29371;340;64009;-57
2022/12/05 00:11:25;;;;;;;0.68;0.68;;;;;;;1.25;95.39;96656.03;29373;227;63009;-56
2022/12/05 00:11:59;;;;;;;0.70;0.70;;;;;;;1.24;95.00;96654.41;29373;316;63004;-56
2022/12/05 00:12:31;;;;;;;2.47;1.50;;;;;;;1.23;94.98;96658.12;29373;240;63009;-56
2022/12/05 00:13:03;;;;;;;6.68;6.28;;;;;;;1.24;94.77;96657.09;29373;250;63004;-56
2022/12/05 00:13:34;;;;;;;0.70;0.70;;;;;;;1.23;94.79;96654.66;29372;223;63008;-57
2022/12/05 00:14:07;;;;;;;0.70;0.70;;;;;;;1.21;94.63;96660.22;29373;315;63004;-56
2022/12/05 00:14:38;;;;;;;0.50;0.50;;;;;;;1.16;94.96;96657.47;29373;267;63009;-56
2022/12/05 00:15:11;;;;;;;0.60;0.60;;;;;;;1.12;94.76;96661.66;29371;203;64009;-57
2022/12/05 00:15:42;;;;;;;0.55;0.55;;;;;;;1.11;95.05;96665.38;29373;238;63019;-56
2022/12/05 00:16:17;;;;;;;0.60;0.60;;;;;;;1.08;95.02;96660.50;29373;225;63005;-68
2022/12/05 00:16:48;;;;;;;0.60;0.60;;;;;;;1.07;95.25;96666.91;29373;263;63009;-67
2022/12/05 00:17:19;;;;;;;0.60;0.60;;;;;;;1.06;95.34;96667.94;29373;205;63005;-56
2022/12/05 00:17:50;;;;;;;0.60;0.60;;;;;;;1.06;95.70;96665.28;29373;271;63005;-56
2022/12/05 00:18:22;;;;;;;0.70;0.70;;;;;;;1.03;95.58;96670.31;29373;288;63005;-57
2022/12/05 00:18:54;;;;;;;0.65;0.65;;;;;;;0.99;95.62;96662.78;29373;249;63009;-57
2022/12/05 00:19:25;;;;;;;0.75;0.75;;;;;;;1.01;95.60;96665.19;29373;232;63017;-57
2022/12/05 00:19:58;;;;;;;0.60;0.60;;;;;;;1.03;95.83;96663.09;29371;197;64013;-56
2022/12/05 00:20:29;;;;;;;0.60;0.60;;;;;;;1.03;95.71;96660.44;29371;197;64009;-57
2022/12/05 00:21:01;;;;;;;0.60;0.60;;;;;;;1.01;95.51;96654.50;29371;246;64013;-69
2022/12/05 00:21:34;;;;;;;0.70;0.70;;;;;;;1.00;95.42;96658.25;29373;208;63004;-67
2022/12/05 00:22:06;;;;;;;0.60;0.60;;;;;;;0.99;95.64;96659.28;29373;218;63009;-67
2022/12/05 00:22:38;;;;;;;0.60;0.60;;;;;;;0.99;95.77;96667.31;29373;310;63005;-56
2022/12/05 00:23:09;;;;;;;0.60;0.60;;;;;;;0.97;95.84;96667.53;29373;203;63009;-57
2022/12/05 00:24:50;;;;;;;0.61;0.61;;;;;;;0.95;96.13;96674.16;88174;202;64005;-56
2022/12/05 00:25:21;;;;;;;0.60;0.60;;;;;;;0.94;96.16;96664.53;29394;213;64009;-55
2022/12/05 00:25:52;;;;;;;0.65;0.65;;;;;;;0.92;96.53;96666.62;29373;212;63005;-56
2022/12/05 00:26:24;;;;;;;0.70;0.70;;;;;;;0.91;96.68;96654.31;29394;216;64014;-68
2022/12/05 00:26:55;;;;;;;0.60;0.60;;;;;;;0.90;97.12;96658.03;29395;261;63005;-67
2022/12/05 00:27:27;;;;;;;0.60;0.60;;;;;;;0.90;96.81;96652.69;29395;220;63009;-67
2022/12/05 00:27:59;;;;;;;0.70;0.70;;;;;;;0.90;97.27;96652.69;29373;281;63005;-68
2022/12/05 00:28:31;;;;;;;0.60;0.60;;;;;;;0.92;96.98;96650.59;29373;231;63009;-57
2022/12/05 00:29:03;;;;;;;0.50;0.50;;;;;;;0.94;97.27;96659.19;29373;254;63017;-67
2022/12/05 00:29:35;;;;;;;0.60;0.60;;;;;;;0.95;97.26;96660.81;29373;197;63009;-56
2022/12/05 00:30:07;;;;;;;0.60;0.60;;;;;;;0.97;97.23;96664.06;29395;199;63004;-56
2022/12/05 00:30:40;;;;;;;0.60;0.60;;;;;;;0.95;96.97;96661.63;29373;245;63026;-56
2022/12/05 00:31:17;;;;;;;0.70;0.70;;;;;;;1.03;96.74;96657.75;29371;198;64009;-64
2022/12/05 00:31:48;;;;;;;0.95;0.95;;;;;;;1.09;96.18;96664.81;29395;245;63008;-66
2022/12/05 00:32:20;;;;;;;0.60;0.60;;;;;;;1.13;96.04;96663.28;29373;304;63004;-57
2022/12/05 00:32:51;;;;;;;0.60;0.60;;;;;;;1.18;95.41;96665.25;29371;212;64014;-63
2022/12/05 00:33:22;;;;;;;0.60;0.60;;;;;;;1.20;94.70;96669.28;29394;342;64009;-69
2022/12/05 00:33:54;;;;;;;0.57;0.57;;;;;;;1.20;94.56;96663.94;29373;206;63009;-67
2022/12/05 00:34:26;;;;;;;0.60;0.60;;;;;;;1.25;94.51;96677.41;29373;233;63016;-56
2022/12/05 00:34:57;;;;;;;0.60;0.60;;;;;;;1.24;94.18;96664.28;29372;242;63009;-56
2022/12/05 00:35:34;;;;;;;0.65;0.65;;;;;;;1.20;94.00;96671.97;29373;321;63005;-68
2022/12/05 00:36:11;;;;;;;0.62;0.62;;;;;;;1.14;93.74;96666.75;29373;283;63009;-69
2022/12/05 00:36:42;;;;;;;0.70;0.70;;;;;;;1.10;94.19;96668.28;29373;376;63004;-67
2022/12/05 00:37:17;;;;;;;0.70;0.70;;;;;;;1.09;94.49;96664.81;29373;202;63009;-56
2022/12/05 00:37:48;;;;;;;0.65;0.65;;;;;;;1.12;94.88;96669.66;29395;244;63004;-67
2022/12/05 00:38:20;;;;;;;0.60;0.60;;;;;;;1.10;94.69;96666.44;29371;238;64013;-68
2022/12/05 00:38:53;;;;;;;0.60;0.60;;;;;;;1.07;94.76;96661.56;29373;325;63004;-56
2022/12/05 00:39:24;;;;;;;0.70;0.70;;;;;;;1.05;94.62;96660.16;29373;220;63008;-55
2022/12/05 00:39:55;;;;;;;0.70;0.70;;;;;;;1.02;94.67;96661.47;29373;199;63004;-68
2022/12/05 00:40:27;;;;;;;0.60;0.60;;;;;;;1.02;94.76;96658.81;29373;225;63009;-56
2022/12/05 00:41:07;;;;;;;3.05;2.95;;;;;;;1.05;94.75;96652.16;29373;247;63005;-56
2022/12/05 00:41:39;;;;;;;0.70;0.70;;;;;;;1.03;94.65;96655.09;29371;323;64014;-56
2022/12/05 00:42:10;;;;;;;0.60;0.60;;;;;;;1.02;94.59;96661.47;29373;197;63005;-66
2022/12/05 00:42:41;;;;;;;0.60;0.60;;;;;;;1.05;94.75;96663.66;29373;320;63009;-56
2022/12/05 00:43:12;;;;;;;0.60;0.60;;;;;;;1.09;94.99;96662.13;29373;321;63005;-56
2022/12/05 00:43:47;;;;;;;0.60;0.60;;;;;;;1.11;94.85;96662.69;29373;295;63009;-64
2022/12/05 00:44:18;;;;;;;0.60;0.60;;;;;;;1.15;94.92;96663.84;29373;224;63004;-56
2022/12/05 00:44:50;;;;;;;0.70;0.70;;;;;;;1.11;94.31;96665.38;29371;202;64013;-57
2022/12/05 00:45:21;;;;;;;0.60;0.60;;;;;;;1.07;94.58;96666.91;29373;202;63004;-56
2022/12/05 00:45:53;;;;;;;0.60;0.60;;;;;;;1.03;94.97;96665.78;29373;257;63009;-56
2022/12/05 00:46:26;;;;;;;0.60;0.60;;;;;;;1.00;95.16;96664.38;29373;231;63004;-56
2022/12/05 00:46:57;;;;;;;0.60;0.60;;;;;;;1.01;95.14;96665.19;29373;209;63008;-56
2022/12/05 00:47:28;;;;;;;0.60;0.60;;;;;;;1.02;95.22;96672.16;29373;215;63000;-56
2022/12/05 00:48:00;;;;;;;0.62;0.62;;;;;;;0.99;95.34;96668.09;29373;221;63009;-56
2022/12/05 00:48:31;;;;;;;0.70;0.70;;;;;;;0.99;95.66;96670.78;29373;271;63005;-55
2022/12/05 00:49:04;;;;;;;0.70;0.70;;;;;;;0.98;95.42;96671.84;29395;227;63009;-56
2022/12/05 00:49:36;;;;;;;0.60;0.60;;;;;;;0.97;95.70;96675.56;29395;231;63005;-56
2022/12/05 00:50:08;;;;;;;0.60;0.60;;;;;;;0.94;95.79;96670.69;29394;223;64013;-56
2022/12/05 00:50:39;;;;;;;0.60;0.60;;;;;;;0.94;95.87;96675.22;29394;204;64009;-56
2022/12/05 00:51:20;;;;;;;0.60;0.60;;;;;;;0.93;95.66;96677.06;29395;229;63015;-55
2022/12/05 00:51:51;;;;;;;0.60;0.60;;;;;;;0.89;95.62;96673.25;29422;237;63004;-56
2022/12/05 00:52:22;;;;;;;0.60;0.60;;;;;;;0.88;95.87;96673.47;29395;245;63009;-56
2022/12/05 00:52:53;;;;;;;1.92;1.83;;;;;;;0.88;96.23;96670.81;29373;204;63004;-56
2022/12/05 00:53:24;;;;;;;0.60;0.60;;;;;;;0.85;96.04;96671.28;29395;270;63009;-56
2022/12/05 00:54:02;;;;;;;0.60;0.60;;;;;;;0.86;96.37;96668.38;29395;276;63004;-56
2022/12/05 00:54:33;;;;;;;0.60;0.60;;;;;;;0.84;96.05;96664.31;29395;221;63008;-56
2022/12/05 00:55:05;;;;;;;0.60;0.60;;;;;;;0.83;96.21;96662.69;29395;239;63004;-56
2022/12/05 00:55:37;;;;;;;0.60;0.60;;;;;;;0.83;96.26;96668.03;29395;224;63024;-56
2022/12/05 00:56:12;;;;;;;0.60;0.60;;;;;;;0.81;96.66;96670.13;29394;200;64009;-56
2022/12/05 00:56:44;;;;;;;0.60;0.60;;;;;;;0.81;96.70;96670.94;29394;269;64013;-56
2022/12/05 00:57:17;;;;;;;0.70;0.70;;;;;;;0.81;96.42;96672.78;29371;198;64009;-56
2022/12/05 00:57:48;;;;;;;0.60;0.60;;;;;;;0.83;96.95;96673.38;29395;210;63009;-57
2022/12/05 00:58:19;;;;;;;0.60;0.60;;;;;;;0.84;96.90;96675.00;29373;235;63005;-56
2022/12/05 00:58:53;;;;;;;0.60;0.60;;;;;;;0.84;96.57;96675.00;29373;222;63009;-56
2022/12/05 00:59:25;;;;;;;0.70;0.70;;;;;;;0.83;96.66;96678.72;29395;216;63000;-56
2022/12/05 00:59:56;;;;;;;0.60;0.60;;;;;;;0.83;96.90;96692.87;29396;215;63009;-56
2022/12/05 01:00:27;;;;;;;0.60;0.60;;;;;;;0.83;97.09;96692.87;29394;218;64009;-56
2022/12/05 01:01:10;;;;;;;0.60;0.60;;;;;;;0.89;96.94;96683.13;29395;266;63018;-56
2022/12/05 01:01:44;;;;;;;0.60;0.60;;;;;;;0.92;97.11;96688.00;29395;243;63004;-56
2022/12/05 01:02:16;;;;;;;0.62;0.62;;;;;;;0.91;96.55;96694.38;29395;213;63009;-57
2022/12/05 01:02:47;;;;;;;0.60;0.60;;;;;;;0.89;96.67;96685.78;29395;216;63005;-57
2022/12/05 01:03:18;;;;;;;0.60;0.60;;;;;;;0.88;96.68;96686.84;29373;228;63009;-56
2022/12/05 01:03:52;;;;;;;0.60;0.60;;;;;;;0.86;96.66;96700.44;29373;341;63005;-56
2022/12/05 01:04:24;;;;;;;0.60;0.60;;;;;;;0.86;96.71;96694.28;29373;197;63024;-56
2022/12/05 01:04:55;;;;;;;0.70;0.70;;;;;;;0.87;96.94;96685.22;29373;272;63005;-57
2022/12/05 01:05:26;;;;;;;0.60;0.60;;;;;;;0.88;96.67;96698.34;29373;199;63009;-67
2022/12/05 01:06:01;;;;;;;0.60;0.60;;;;;;;0.88;96.82;96702.88;29371;213;64009;-56
2022/12/05 01:06:35;;;;;;;0.70;0.70;;;;;;;0.89;96.97;96696.47;29373;253;63009;-56
2022/12/05 01:07:06;;;;;;;0.70;0.70;;;;;;;0.89;97.11;96699.13;29373;241;63004;-56
2022/12/05 01:07:37;;;;;;;0.60;0.60;;;;;;;0.86;97.00;96704.97;29373;264;63009;-55
2022/12/05 01:08:08;;;;;;;0.60;0.60;;;;;;;0.84;97.12;96701.72;29373;336;63004;-56
2022/12/05 01:08:42;;;;;;;0.52;0.52;;;;;;;0.85;97.09;96695.31;29373;256;63017;-56
2022/12/05 01:09:16;;;;;;;0.60;0.60;;;;;;;0.90;97.36;96701.59;29373;248;63004;-56
2022/12/05 01:09:47;;;;;;;0.60;0.60;;;;;;;0.94;96.90;96704.59;29373;301;63009;-56
2022/12/05 01:10:18;;;;;;;0.60;0.60;;;;;;;0.94;96.86;96701.94;29371;393;64009;-56
2022/12/05 01:10:57;;;;;;;0.60;0.60;;;;;;;0.94;97.03;96702.72;29371;206;64014;-56
2022/12/05 01:11:29;;;;;;;1.48;1.40;;;;;;;0.94;96.98;96707.25;29373;218;63005;-56
2022/12/05 01:12:00;;;;;;;0.60;0.60;;;;;;;0.93;96.53;96717.13;29373;208;63009;-56
2022/12/05 01:12:32;;;;;;;0.60;0.60;;;;;;;0.92;97.03;96712.84;29373;225;63005;-56
2022/12/05 01:13:03;;;;;;;0.60;0.60;;;;;;;0.89;97.24;96715.97;29395;222;63009;-56
2022/12/05 01:13:35;;;;;;;4.32;4.10;;;;;;;0.89;96.99;96720.50;29395;235;63005;-55
2022/12/05 01:14:06;;;;;;;0.60;0.60;;;;;;;0.90;97.17;96716.78;29395;214;63026;-56
2022/12/05 01:14:37;;;;;;;0.60;0.60;;;;;;;0.89;97.15;96715.16;29395;214;63004;-56
2022/12/05 01:15:10;;;;;;;0.60;0.60;;;;;;;0.89;96.90;96717.84;29394;233;64013;-56
2022/12/05 01:15:41;;;;;;;0.60;0.60;;;;;;;0.89;97.05;96717.84;29395;196;63004;-56
2022/12/05 01:16:19;;;;;;;0.62;0.62;;;;;;;0.89;96.96;96726.66;29395;262;63008;-55
2022/12/05 01:16:53;;;;;;;0.70;0.70;;;;;;;0.89;97.33;96721.31;29373;226;63004;-57
2022/12/05 01:17:24;;;;;;;0.60;0.60;;;;;;;0.87;97.00;96725.28;29373;241;63009;-56
2022/12/05 01:17:56;;;;;;;0.70;0.70;;;;;;;0.86;96.90;96720.97;29373;204;63015;-56
2022/12/05 01:18:28;;;;;;;0.60;0.60;;;;;;;0.86;97.08;96723.66;29373;309;63009;-55
2022/12/05 01:19:03;;;;;;;0.60;0.60;;;;;;;0.84;96.87;96733.75;29373;346;63005;-56
2022/12/05 01:19:36;;;;;;;0.70;0.70;;;;;;;0.83;97.29;96724.13;29373;238;63009;-56
2022/12/05 01:20:09;;;;;;;0.60;0.60;;;;;;;0.83;97.70;96726.78;29371;198;64009;-56
2022/12/05 01:20:42;;;;;;;0.60;0.60;;;;;;;0.83;97.59;96726.78;29373;276;63009;-55
2022/12/05 01:21:13;;;;;;;0.60;0.60;;;;;;;0.84;97.81;96728.41;29373;340;63004;-56
2022/12/05 01:21:46;;;;;;;0.60;0.60;;;;;;;0.84;97.91;96728.41;29373;273;63009;-56
2022/12/05 01:22:17;;;;;;;0.60;0.60;;;;;;;0.85;97.93;96724.69;29373;245;63006;-56
2022/12/05 01:22:49;;;;;;;4.00;3.80;;;;;;;0.87;97.64;96723.41;29371;204;64013;-55
2022/12/05 01:23:21;;;;;;;0.52;0.52;;;;;;;0.90;97.72;96719.47;29373;219;63004;-55
2022/12/05 01:23:53;;;;;;;0.60;0.60;;;;;;;0.92;97.53;96720.03;29373;253;63008;-56
2022/12/05 01:24:25;;;;;;;0.70;0.70;;;;;;;0.92;97.40;96709.34;29395;196;63008;-57
2022/12/05 01:24:58;;;;;;;0.57;0.57;;;;;;;0.91;97.40;96713.06;29373;297;63018;-56
2022/12/05 01:25:29;;;;;;;0.60;0.60;;;;;;;0.90;97.15;96706.91;29373;198;63018;-56
2022/12/05 01:26:05;;;;;;;0.60;0.60;;;;;;;0.90;97.24;96711.44;29373;217;63009;-56
2022/12/05 01:26:37;;;;;;;0.60;0.60;;;;;;;0.90;97.15;96714.94;29395;381;63017;-55
2022/12/05 01:27:09;;;;;;;0.55;0.55;;;;;;;0.92;97.08;96706.69;29371;199;64013;-56
2022/12/05 01:27:40;;;;;;;0.60;0.60;;;;;;;0.92;97.10;96715.50;29373;241;63005;-56
2022/12/05 01:28:13;;;;;;;0.60;0.60;;;;;;;0.93;96.96;96721.66;29373;260;63009;-56
2022/12/05 01:28:45;;;;;;;0.70;0.70;;;;;;;0.92;97.30;96714.69;29395;260;63004;-56
2022/12/05 01:29:20;;;;;;;0.60;0.60;;;;;;;0.91;97.02;96716.56;29373;199;63009;-56
2022/12/05 01:29:52;;;;;;;0.52;0.52;;;;;;;0.88;97.13;96719.69;29395;249;63004;-56
2022/12/05 01:30:23;;;;;;;0.55;0.55;;;;;;;0.88;97.17;96719.69;29373;227;63009;-56
2022/12/05 01:30:54;;;;;;;0.60;0.60;;;;;;;0.89;97.49;96725.84;29373;234;63004;-56
2022/12/05 01:31:44;;;;;;;0.55;0.55;;;;;;;0.88;97.06;96725.03;29373;197;63008;-56
2022/12/05 01:32:15;;;;;;;1.27;1.27;;;;;;;0.89;97.34;96725.84;29371;224;64009;-56
2022/12/05 01:32:47;;;;;;;0.60;0.60;;;;;;;0.89;97.28;96723.19;29395;237;63009;-56
2022/12/05 01:33:18;;;;;;;0.70;0.70;;;;;;;0.89;96.99;96720.50;29395;251;63005;-56
2022/12/05 01:33:50;;;;;;;0.60;0.60;;;;;;;0.88;97.00;96724.22;29395;223;63009;-57
2022/12/05 01:34:22;;;;;;;0.65;0.65;;;;;;;0.89;97.23;96723.19;29394;283;64009;-55
2022/12/05 01:34:54;;;;;;;0.60;0.60;;;;;;;0.88;96.92;96716.22;29395;308;63009;-56
2022/12/05 01:35:25;;;;;;;0.70;0.70;;;;;;;0.90;96.87;96720.28;29395;288;63011;-56
2022/12/05 01:35:56;;;;;;;0.70;0.70;;;;;;;0.90;96.83;96714.94;29373;233;63009;-56
2022/12/05 01:36:28;;;;;;;0.60;0.60;;;;;;;0.91;96.91;96708.53;29395;291;63004;-56
2022/12/05 01:36:59;;;;;;;0.60;0.60;;;;;;;0.92;96.80;96706.69;29395;202;63009;-56
2022/12/05 01:37:31;;;;;;;0.70;0.70;;;;;;;0.93;97.05;96710.97;29395;208;63004;-56
2022/12/05 01:38:03;;;;;;;0.68;0.68;;;;;;;0.89;97.13;96709.81;29395;207;63009;-56
2022/12/05 01:38:34;;;;;;;0.98;0.98;;;;;;;0.89;97.17;96707.16;29395;231;63004;-56
2022/12/05 01:39:06;;;;;;;0.70;0.70;;;;;;;0.88;97.03;96718.88;29395;304;63004;-55
2022/12/05 01:39:38;;;;;;;0.70;0.70;;;;;;;0.87;97.45;96711.91;29394;226;64009;-56
2022/12/05 01:40:10;;;;;;;0.70;0.70;;;;;;;0.88;97.48;96708.22;29395;221;63009;-56
2022/12/05 01:40:41;;;;;;;0.93;0.93;;;;;;;0.89;97.24;96709.81;29395;284;63005;-56
2022/12/05 01:41:35;;;;;;;0.65;0.65;;;;;;;0.87;97.51;96712.72;29395;207;63009;-56
2022/12/05 01:42:06;;;;;;;0.70;0.70;;;;;;;0.87;97.26;96709.25;29395;234;63005;-55
2022/12/05 01:42:39;;;;;;;0.70;0.70;;;;;;;0.88;97.19;96713.53;29395;203;63009;-56
2022/12/05 01:43:15;;;;;;;0.70;0.70;;;;;;;0.89;97.46;96720.50;29395;239;63005;-56
2022/12/05 01:44:01;;;;;;;0.60;0.60;;;;;;;0.90;97.11;96722.13;29395;265;63009;-56
2022/12/05 01:44:58;;;;;;;0.60;0.60;;;;;;;0.92;97.26;96725.38;29394;225;64009;-56
2022/12/05 01:45:41;;;;;;;0.70;0.70;;;;;;;0.90;96.84;96733.63;29395;283;63009;-57
2022/12/05 01:46:12;;;;;;;0.60;0.60;;;;;;;0.89;97.05;96731.19;29373;226;63004;-56
2022/12/05 01:46:49;;;;;;;0.60;0.60;;;;;;;0.89;96.72;96739.22;29373;205;63008;-56
2022/12/05 01:47:24;;;;;;;0.52;0.52;;;;;;;0.90;96.91;96738.16;29373;235;63005;-57
2022/12/05 01:47:55;;;;;;;0.60;0.60;;;;;;;0.89;96.71;96734.69;29373;232;63009;-56
2022/12/05 01:48:35;;;;;;;0.60;0.60;;;;;;;0.89;97.15;96736.53;29373;332;63005;-56
2022/12/05 01:49:11;;;;;;;0.70;0.70;;;;;;;0.90;97.21;96732.81;29373;235;63015;-56
2022/12/05 01:49:43;;;;;;;0.65;0.65;;;;;;;0.96;96.94;96737.22;29371;209;64009;-57
2022/12/05 01:50:18;;;;;;;0.70;0.70;;;;;;;1.03;96.13;96729.91;29395;284;63009;-57
2022/12/05 01:50:52;;;;;;;3.20;3.00;;;;;;;1.04;95.60;96726.16;29395;218;63005;-57
2022/12/05 01:51:25;;;;;;;0.60;0.60;;;;;;;1.03;95.29;96737.91;29373;222;63014;-56
2022/12/05 01:52:05;;;;;;;0.60;0.60;;;;;;;1.00;95.15;96733.84;29373;198;63004;-56
2022/12/05 01:52:37;;;;;;;;;;;;;;;1.02;95.29;96741.63;29974;983;28000;-57
2022/12/05 01:53:09;;;;;;;0.60;0.60;;;;;;;1.02;95.10;96744.31;29422;197;63009;-57
2022/12/05 01:53:40;;;;;;;0.70;0.70;;;;;;;1.03;95.14;96743.25;29395;312;63004;-56
2022/12/05 01:54:15;;;;;;;0.70;0.70;;;;;;;1.00;95.36;96739.19;29373;212;63008;-56
2022/12/05 01:54:50;;;;;;;0.60;0.60;;;;;;;0.99;95.32;96739.44;29371;218;64009;-56
2022/12/05 01:55:21;;;;;;;0.60;0.60;;;;;;;0.99;95.50;96737.56;29395;275;63025;-56
2022/12/05 01:55:54;;;;;;;0.60;0.60;;;;;;;1.00;95.45;96743.72;29373;279;63005;-56
2022/12/05 01:56:25;;;;;;;0.60;0.60;;;;;;;1.03;95.86;96737.91;29373;237;63009;-56
2022/12/05 01:57:03;;;;;;;0.55;0.55;;;;;;;1.05;95.11;96741.13;29373;217;63005;-57
2022/12/05 01:57:36;;;;;;;0.70;0.70;;;;;;;1.05;95.05;96738.47;29395;257;63009;-56
2022/12/05 01:58:09;;;;;;;0.68;0.68;;;;;;;1.07;95.08;96733.69;29373;233;63004;-56
2022/12/05 01:58:42;;;;;;;0.70;0.70;;;;;;;1.07;94.69;96739.03;29373;226;63020;-55
2022/12/05 01:59:15;;;;;;;0.68;0.68;;;;;;;1.06;94.84;96742.75;29373;230;63004;-57
2022/12/05 01:59:54;;;;;;;0.60;0.60;;;;;;;1.05;94.83;96730.44;29371;321;64013;-56
2022/12/05 02:00:25;;;;;;;0.60;0.60;;;;;;;1.04;94.67;96728.03;29373;288;63004;-57
2022/12/05 02:00:56;;;;;;;0.57;0.57;;;;;;;1.04;95.08;96736.84;29395;196;63008;-56
2022/12/05 02:01:27;;;;;;;0.60;0.60;;;;;;;1.02;95.16;96725.59;29373;293;63004;-66
2022/12/05 02:01:59;;;;;;;0.70;0.70;;;;;;;1.00;95.27;96728.50;29395;258;63008;-57
2022/12/05 02:02:32;;;;;;;0.60;0.60;;;;;;;0.99;95.21;96731.41;29395;234;63005;-56
2022/12/05 02:03:07;;;;;;;0.60;0.60;;;;;;;1.00;95.33;96733.03;29373;216;63009;-57
2022/12/05 02:03:41;;;;;;;0.62;0.62;;;;;;;1.00;95.52;96733.03;29373;294;63012;-56
2022/12/05 02:04:13;;;;;;;0.60;0.60;;;;;;;1.01;95.83;96729.31;29373;202;63024;-56
2022/12/05 02:05:24;;;;;;;0.70;0.70;;;;;;;1.07;95.46;96733.69;29373;262;63008;-56
2022/12/05 02:05:58;;;;;;;0.60;0.60;;;;;;;1.08;95.33;96731.84;29371;215;64013;-56
2022/12/05 02:06:31;;;;;;;0.60;0.60;;;;;;;1.07;95.14;96732.88;29373;257;63004;-67
2022/12/05 02:07:04;;;;;;;0.60;0.60;;;;;;;1.04;95.39;96734.16;29373;209;63009;-56
2022/12/05 02:07:40;;;;;;;0.70;0.70;;;;;;;1.02;95.30;96730.94;29373;225;63004;-56
2022/12/05 02:08:11;;;;;;;0.60;0.60;;;;;;;1.01;95.61;96737.34;29373;238;63008;-56
2022/12/05 02:08:44;;;;;;;0.70;0.70;;;;;;;1.01;95.57;96734.66;29395;214;63010;-57
2022/12/05 02:09:15;;;;;;;0.70;0.70;;;;;;;0.98;96.00;96740.47;29373;296;63028;-56
2022/12/05 02:09:49;;;;;;;0.70;0.70;;;;;;;0.94;96.35;96739.31;29372;218;63005;-55
2022/12/05 02:10:21;;;;;;;1.02;1.02;;;;;;;0.89;96.72;96731.19;29371;243;64014;-56
2022/12/05 02:10:56;;;;;;;0.60;0.60;;;;;;;0.92;96.80;96746.75;29373;246;63005;-57
2022/12/05 02:11:30;;;;;;;0.60;0.60;;;;;;;0.92;96.93;96744.09;29395;318;63009;-56
2022/12/05 02:12:03;;;;;;;0.60;0.60;;;;;;;0.92;96.68;96752.09;29373;310;63005;-56
2022/12/05 02:12:35;;;;;;;0.60;0.60;;;;;;;0.91;96.80;96745.94;29373;230;63009;-56
2022/12/05 02:13:54;;;;;;;0.60;0.60;;;;;;;0.90;96.92;96749.66;29373;268;63005;-56
2022/12/05 02:14:50;;;;;;;0.60;0.60;;;;;;;0.86;97.34;96747.69;29373;327;63009;-56
2022/12/05 02:15:59;;;;;;;0.70;0.70;;;;;;;0.83;97.66;96748.16;29371;205;64009;-57
2022/12/05 02:17:08;;;;;;;0.90;0.90;;;;;;;0.84;97.60;96755.13;29373;290;63008;-56
2022/12/05 02:18:37;;;;;;;0.60;0.60;;;;;;;0.83;97.67;96758.84;29373;251;63005;-57
2022/12/05 02:19:50;;;;;;;0.70;0.70;;;;;;;0.82;97.91;96744.69;29373;284;63016;-55
2022/12/05 02:20:44;;;;;;;0.70;0.70;;;;;;;0.83;97.76;96738.28;29373;214;63005;-56
2022/12/05 02:21:43;;;;;;;0.70;0.70;;;;;;;0.87;98.13;96742.12;29371;310;64013;-55
2022/12/05 02:23:00;;;;;;;0.60;0.60;;;;;;;0.90;97.70;96752.34;29373;220;63008;-56
2022/12/05 02:23:59;;;;;;;0.60;0.60;;;;;;;0.85;97.87;96762.09;29373;203;63008;-56
2022/12/05 02:25:19;;;;;;;0.70;0.70;;;;;;;0.87;97.81;96757.34;29373;374;63005;-57
2022/12/05 02:26:21;;;;;;;0.70;0.70;;;;;;;0.88;97.70;96762.44;29373;298;63009;-57
2022/12/05 02:27:36;;;;;;;0.70;0.70;;;;;;;0.87;97.86;96760.81;29393;237;64009;-55
2022/12/05 02:28:43;;;;;;;1.85;1.70;;;;;;;0.90;97.92;96759.53;29395;205;63009;-69
2022/12/05 02:29:53;;;;;;;0.70;0.70;;;;;;;0.89;97.63;96769.41;29371;202;64013;-56
2022/12/05 02:30:29;;;;;;;0.70;0.70;;;;;;;0.89;97.62;96773.94;29371;365;64013;-56
2022/12/05 02:31:19;;;;;;;0.62;0.62;;;;;;;0.88;98.05;96780.31;29373;204;63004;-56
2022/12/05 02:32:05;;;;;;;0.60;0.60;;;;;;;0.87;97.89;96782.19;29373;338;63009;-68
2022/12/05 02:33:08;;;;;;;0.60;0.60;;;;;;;0.88;98.28;96785.66;29371;364;64009;-55
2022/12/05 02:33:49;;;;;;;0.68;0.68;;;;;;;0.86;98.48;96790.44;29395;277;63009;-56
2022/12/05 02:34:33;;;;;;;0.60;0.60;;;;;;;0.85;98.29;96788.81;29395;202;63005;-57
2022/12/05 02:35:40;;;;;;;0.60;0.60;;;;;;;0.87;98.86;96792.06;29371;268;64013;-56
2022/12/05 02:36:31;;;;;;;0.70;0.70;;;;;;;0.87;98.41;96792.87;29371;209;64009;-57
2022/12/05 02:37:21;;;;;;;0.62;0.62;;;;;;;0.88;98.68;96783.81;29373;202;63009;-56
2022/12/05 02:38:33;;;;;;;0.70;0.70;;;;;;;0.91;98.75;96788.69;29373;222;63004;-56
2022/12/05 02:39:23;;;;;;;0.70;0.70;;;;;;;0.94;98.30;96782.88;29417;224;63008;-56
2022/12/05 02:40:14;;;;;;;0.70;0.70;;;;;;;0.91;98.57;96783.34;29371;199;64009;-56
2022/12/05 02:41:03;;;;;;;0.70;0.70;;;;;;;0.91;98.46;96787.88;29393;302;64014;-56
2022/12/05 02:42:03;;;;;;;0.70;0.70;;;;;;;0.90;98.57;96783.56;29395;257;63005;-56
2022/12/05 02:42:58;;;;;;;0.60;0.60;;;;;;;0.90;98.70;96776.37;29373;196;63009;-56
2022/12/05 02:44:15;;;;;;;0.62;0.62;;;;;;;0.90;98.58;96784.37;29373;331;63004;-56
2022/12/05 02:45:04;;;;;;;0.70;0.70;;;;;;;0.89;99.02;96788.09;29373;202;63013;-58
2022/12/05 02:45:37;;;;;;;1.52;1.50;;;;;;;0.88;98.99;96786.47;29373;229;63004;-56
2022/12/05 02:46:16;;;;;;;0.70;0.70;;;;;;;0.89;99.36;96789.97;29371;213;64013;-56
2022/12/05 02:46:51;;;;;;;0.62;0.62;;;;;;;0.90;99.61;96787.06;29373;223;63005;-55
2022/12/05 02:47:27;;;;;;;0.70;0.70;;;;;;;0.94;99.50;96787.41;29373;252;63009;-56
2022/12/05 02:47:59;;;;;;;0.60;0.60;;;;;;;0.94;99.32;96787.41;29373;252;63005;-57
2022/12/05 02:48:33;;;;;;;0.70;0.70;;;;;;;0.95;99.41;96792.53;29395;207;63009;-56
2022/12/05 02:49:10;;;;;;;0.70;0.70;;;;;;;0.95;99.69;96795.19;29373;198;63005;-56
2022/12/05 02:49:42;;;;;;;0.70;0.70;;;;;;;0.94;99.52;96793.56;29373;198;63009;-56
2022/12/05 02:50:19;;;;;;;0.60;0.60;;;;;;;0.95;99.75;96799.72;29373;204;63005;-56
2022/12/05 02:50:52;;;;;;;0.62;0.62;;;;;;;0.95;99.99;96799.72;29371;347;64013;-56
2022/12/05 02:51:28;;;;;;;0.60;0.60;;;;;;;0.94;99.90;96798.91;29373;332;63004;-57
2022/12/05 02:52:02;;;;;;;0.73;0.73;;;;;;;0.94;100.00;96792.75;29373;202;63009;-56
2022/12/05 02:52:34;;;;;;;0.70;0.70;;;;;;;0.93;99.93;96796.47;29373;210;63007;-56
2022/12/05 02:53:10;;;;;;;0.70;0.70;;;;;;;0.94;100.00;96798.91;29373;331;63018;-56
2022/12/05 02:53:43;;;;;;;0.60;0.60;;;;;;;0.95;100.00;96805.06;29373;237;63004;-56
2022/12/05 02:54:23;;;;;;;0.60;0.60;;;;;;;0.97;100.00;96797.63;29373;271;63008;-56
2022/12/05 02:54:55;;;;;;;0.70;0.70;;;;;;;0.96;100.00;96796.00;29373;268;63005;-56
2022/12/05 02:55:29;;;;;;;0.70;0.70;;;;;;;0.96;100.00;96802.16;29373;216;63009;-56
2022/12/05 02:56:01;;;;;;;0.60;0.60;;;;;;;0.97;100.00;96797.63;29371;240;64009;-56
2022/12/05 02:56:36;;;;;;;0.60;0.60;;;;;;;1.00;100.00;96802.50;29373;324;63009;-57